Terminal Aerodrome Forecast
Issued by NWS Sterling, VA

Current Version | Previous Version | Text Only | Print | Product List | Glossary Off
Versions: 1 2 3 4 5 6 7 8 9 10 11 12 13 14 15 16 17 18 19 20 21 22 23

884
FTUS41 KLWX 202051 AAA
TAFDCA
TAF AMD
KDCA 202051Z 2021/2118 17008KT P6SM SCT050 BKN250
     FM202300 19006KT P6SM VCTS BKN050CB
     FM210200 16004KT P6SM BKN070
     FM210600 18004KT P6SM SCT090
     FM210900 21004KT P6SM BKN140
     FM211500 25009KT P6SM BKN070=

USA.gov is the U.S. government's official web portal to all federal, state and local government web resources and services.